sensor_id;sensor_type;location;lat;lon;timestamp;temperature;humidity
30678;DHT22;73746;47.466;8.992;2024-02-16T00:01:29;7.70;99.90
30678;DHT22;73746;47.466;8.992;2024-02-16T00:04:01;7.70;99.90
30678;DHT22;73746;47.466;8.992;2024-02-16T00:06:36;7.70;99.90
30678;DHT22;73746;47.466;8.992;2024-02-16T00:09:08;7.70;99.90
30678;DHT22;73746;47.466;8.992;2024-02-16T00:11:41;7.80;99.90
30678;DHT22;73746;47.466;8.992;2024-02-16T00:14:13;7.80;99.90
30678;DHT22;73746;47.466;8.992;2024-02-16T00:16:45;7.80;99.90
30678;DHT22;73746;47.466;8.992;2024-02-16T00:19:18;7.90;99.90
30678;DHT22;73746;47.466;8.992;2024-02-16T00:21:51;7.90;99.90
30678;DHT22;73746;47.466;8.992;2024-02-16T00:24:25;7.80;99.90
30678;DHT22;73746;47.466;8.992;2024-02-16T00:26:57;7.80;99.90
30678;DHT22;73746;47.466;8.992;2024-02-16T00:29:29;7.80;99.90
30678;DHT22;73746;47.466;8.992;2024-02-16T00:32:01;7.80;99.90
30678;DHT22;73746;47.466;8.992;2024-02-16T00:34:33;7.90;99.90
30678;DHT22;73746;47.466;8.992;2024-02-16T00:37:07;7.90;99.90
30678;DHT22;73746;47.466;8.992;2024-02-16T00:39:40;7.80;99.90
30678;DHT22;73746;47.466;8.992;2024-02-16T00:42:12;7.80;99.90
30678;DHT22;73746;47.466;8.992;2024-02-16T00:44:44;7.80;99.90
30678;DHT22;73746;47.466;8.992;2024-02-16T00:47:16;7.70;99.90
30678;DHT22;73746;47.466;8.992;2024-02-16T00:49:48;7.70;99.90
30678;DHT22;73746;47.466;8.992;2024-02-16T00:52:20;7.80;99.90
30678;DHT22;73746;47.466;8.992;2024-02-16T00:54:53;8.00;99.90
30678;DHT22;73746;47.466;8.992;2024-02-16T00:57:25;7.90;99.90
30678;DHT22;73746;47.466;8.992;2024-02-16T00:59:57;7.90;99.90
30678;DHT22;73746;47.466;8.992;2024-02-16T01:02:29;7.90;99.90
30678;DHT22;73746;47.466;8.992;2024-02-16T01:05:05;7.80;99.90
30678;DHT22;73746;47.466;8.992;2024-02-16T01:07:37;7.80;99.90
30678;DHT22;73746;47.466;8.992;2024-02-16T01:10:10;7.80;99.90
30678;DHT22;73746;47.466;8.992;2024-02-16T01:12:43;7.80;99.90
30678;DHT22;73746;47.466;8.992;2024-02-16T01:15:15;7.70;99.90
30678;DHT22;73746;47.466;8.992;2024-02-16T01:17:47;7.70;99.90
30678;DHT22;73746;47.466;8.992;2024-02-16T01:23:05;7.70;99.90
30678;DHT22;73746;47.466;8.992;2024-02-16T01:25:37;7.70;99.90
30678;DHT22;73746;47.466;8.992;2024-02-16T01:28:09;7.70;99.90
30678;DHT22;73746;47.466;8.992;2024-02-16T01:30:42;7.70;99.90
30678;DHT22;73746;47.466;8.992;2024-02-16T01:33:14;7.70;99.90
30678;DHT22;73746;47.466;8.992;2024-02-16T01:35:47;7.70;99.90
30678;DHT22;73746;47.466;8.992;2024-02-16T01:38:19;7.70;99.90
30678;DHT22;73746;47.466;8.992;2024-02-16T01:40:53;7.70;99.90
30678;DHT22;73746;47.466;8.992;2024-02-16T01:43:25;7.70;99.90
30678;DHT22;73746;47.466;8.992;2024-02-16T01:45:58;7.60;99.90
30678;DHT22;73746;47.466;8.992;2024-02-16T01:48:31;7.60;99.90
30678;DHT22;73746;47.466;8.992;2024-02-16T01:51:03;7.60;99.90
30678;DHT22;73746;47.466;8.992;2024-02-16T01:53:36;7.60;99.90
30678;DHT22;73746;47.466;8.992;2024-02-16T01:56:09;7.50;99.90
30678;DHT22;73746;47.466;8.992;2024-02-16T01:58:42;7.50;99.90
30678;DHT22;73746;47.466;8.992;2024-02-16T02:01:14;7.50;99.90
30678;DHT22;73746;47.466;8.992;2024-02-16T02:03:46;7.50;99.90
30678;DHT22;73746;47.466;8.992;2024-02-16T02:06:18;7.40;99.90
30678;DHT22;73746;47.466;8.992;2024-02-16T02:08:50;7.40;99.90
30678;DHT22;73746;47.466;8.992;2024-02-16T02:11:23;7.40;99.90
30678;DHT22;73746;47.466;8.992;2024-02-16T02:13:55;7.40;99.90
30678;DHT22;73746;47.466;8.992;2024-02-16T02:16:26;7.30;99.90
30678;DHT22;73746;47.466;8.992;2024-02-16T02:19:00;7.30;99.90
30678;DHT22;73746;47.466;8.992;2024-02-16T02:21:33;7.20;99.90
30678;DHT22;73746;47.466;8.992;2024-02-16T02:24:06;7.20;99.90
30678;DHT22;73746;47.466;8.992;2024-02-16T02:26:40;7.20;99.90
30678;DHT22;73746;47.466;8.992;2024-02-16T02:29:12;7.20;99.90
30678;DHT22;73746;47.466;8.992;2024-02-16T02:31:44;7.20;99.90
30678;DHT22;73746;47.466;8.992;2024-02-16T02:34:16;7.20;99.90
30678;DHT22;73746;47.466;8.992;2024-02-16T02:36:49;7.20;99.90
30678;DHT22;73746;47.466;8.992;2024-02-16T02:39:21;7.20;99.90
30678;DHT22;73746;47.466;8.992;2024-02-16T02:41:53;7.20;99.90
30678;DHT22;73746;47.466;8.992;2024-02-16T02:44:25;7.30;99.90
30678;DHT22;73746;47.466;8.992;2024-02-16T02:46:57;7.30;99.90
30678;DHT22;73746;47.466;8.992;2024-02-16T02:49:29;7.30;99.90
30678;DHT22;73746;47.466;8.992;2024-02-16T02:52:02;7.20;99.90
30678;DHT22;73746;47.466;8.992;2024-02-16T02:54:34;7.20;99.90
30678;DHT22;73746;47.466;8.992;2024-02-16T02:57:08;7.10;99.90
30678;DHT22;73746;47.466;8.992;2024-02-16T02:59:40;7.10;99.90
30678;DHT22;73746;47.466;8.992;2024-02-16T03:02:12;7.10;99.90
30678;DHT22;73746;47.466;8.992;2024-02-16T03:04:44;7.00;99.90
30678;DHT22;73746;47.466;8.992;2024-02-16T03:07:16;7.00;99.90
30678;DHT22;73746;47.466;8.992;2024-02-16T03:09:48;7.10;99.90
30678;DHT22;73746;47.466;8.992;2024-02-16T03:15:07;7.30;99.90
30678;DHT22;73746;47.466;8.992;2024-02-16T03:17:40;7.30;99.90
30678;DHT22;73746;47.466;8.992;2024-02-16T03:20:12;7.30;99.90
30678;DHT22;73746;47.466;8.992;2024-02-16T03:22:44;7.20;99.90
30678;DHT22;73746;47.466;8.992;2024-02-16T03:25:16;7.10;99.90
30678;DHT22;73746;47.466;8.992;2024-02-16T03:27:48;7.00;99.90
30678;DHT22;73746;47.466;8.992;2024-02-16T03:30:20;7.00;99.90
30678;DHT22;73746;47.466;8.992;2024-02-16T03:32:52;7.00;99.90
30678;DHT22;73746;47.466;8.992;2024-02-16T03:35:24;7.00;99.90
30678;DHT22;73746;47.466;8.992;2024-02-16T03:37:57;7.00;99.90
30678;DHT22;73746;47.466;8.992;2024-02-16T03:40:29;7.00;99.90
30678;DHT22;73746;47.466;8.992;2024-02-16T03:43:02;7.00;99.90
30678;DHT22;73746;47.466;8.992;2024-02-16T03:45:34;7.00;99.90
30678;DHT22;73746;47.466;8.992;2024-02-16T03:48:07;7.00;99.90
30678;DHT22;73746;47.466;8.992;2024-02-16T03:50:39;7.00;99.90
30678;DHT22;73746;47.466;8.992;2024-02-16T03:53:12;7.00;99.90
30678;DHT22;73746;47.466;8.992;2024-02-16T03:55:44;6.90;99.90
30678;DHT22;73746;47.466;8.992;2024-02-16T03:58:16;7.00;99.90
30678;DHT22;73746;47.466;8.992;2024-02-16T04:00:48;6.90;99.90
30678;DHT22;73746;47.466;8.992;2024-02-16T04:03:20;6.90;99.90
30678;DHT22;73746;47.466;8.992;2024-02-16T04:05:52;6.90;99.90
30678;DHT22;73746;47.466;8.992;2024-02-16T04:08:24;6.80;99.90
30678;DHT22;73746;47.466;8.992;2024-02-16T04:10:56;6.80;99.90
30678;DHT22;73746;47.466;8.992;2024-02-16T04:13:29;6.70;99.90
30678;DHT22;73746;47.466;8.992;2024-02-16T04:16:02;6.70;99.90
30678;DHT22;73746;47.466;8.992;2024-02-16T04:18:35;6.70;99.90
30678;DHT22;73746;47.466;8.992;2024-02-16T04:21:07;6.60;99.90
30678;DHT22;73746;47.466;8.992;2024-02-16T04:23:39;6.70;99.90
30678;DHT22;73746;47.466;8.992;2024-02-16T04:26:11;6.70;99.90
30678;DHT22;73746;47.466;8.992;2024-02-16T04:28:43;6.60;99.90
30678;DHT22;73746;47.466;8.992;2024-02-16T04:31:16;6.60;99.90
30678;DHT22;73746;47.466;8.992;2024-02-16T04:33:48;6.60;99.90
30678;DHT22;73746;47.466;8.992;2024-02-16T04:36:20;6.50;99.90
30678;DHT22;73746;47.466;8.992;2024-02-16T04:38:53;6.50;99.90
30678;DHT22;73746;47.466;8.992;2024-02-16T04:41:25;6.50;99.90
30678;DHT22;73746;47.466;8.992;2024-02-16T04:43:57;6.50;99.90
30678;DHT22;73746;47.466;8.992;2024-02-16T04:46:29;6.40;99.90
30678;DHT22;73746;47.466;8.992;2024-02-16T04:49:01;6.40;99.90
30678;DHT22;73746;47.466;8.992;2024-02-16T04:51:36;6.40;99.90
30678;DHT22;73746;47.466;8.992;2024-02-16T04:54:10;6.40;99.90
30678;DHT22;73746;47.466;8.992;2024-02-16T04:56:42;6.40;99.90
30678;DHT22;73746;47.466;8.992;2024-02-16T04:59:14;6.40;99.90
30678;DHT22;73746;47.466;8.992;2024-02-16T05:01:47;6.30;99.90
30678;DHT22;73746;47.466;8.992;2024-02-16T05:04:19;6.30;99.90
30678;DHT22;73746;47.466;8.992;2024-02-16T05:06:51;6.30;99.90
30678;DHT22;73746;47.466;8.992;2024-02-16T05:09:25;6.20;99.90
30678;DHT22;73746;47.466;8.992;2024-02-16T05:11:57;6.20;99.90
30678;DHT22;73746;47.466;8.992;2024-02-16T05:14:30;6.30;99.90
30678;DHT22;73746;47.466;8.992;2024-02-16T05:17:02;6.30;99.90
30678;DHT22;73746;47.466;8.992;2024-02-16T05:19:34;6.30;99.90
30678;DHT22;73746;47.466;8.992;2024-02-16T05:22:07;6.30;99.90
30678;DHT22;73746;47.466;8.992;2024-02-16T05:24:39;6.20;99.90
30678;DHT22;73746;47.466;8.992;2024-02-16T05:27:11;6.20;99.90
30678;DHT22;73746;47.466;8.992;2024-02-16T05:29:44;6.20;99.90
30678;DHT22;73746;47.466;8.992;2024-02-16T05:32:17;6.30;99.90
30678;DHT22;73746;47.466;8.992;2024-02-16T05:34:49;6.30;99.90
30678;DHT22;73746;47.466;8.992;2024-02-16T05:37:21;6.30;99.90
30678;DHT22;73746;47.466;8.992;2024-02-16T05:39:53;6.30;99.90
30678;DHT22;73746;47.466;8.992;2024-02-16T05:42:26;6.20;99.90
30678;DHT22;73746;47.466;8.992;2024-02-16T05:44:59;6.20;99.90
30678;DHT22;73746;47.466;8.992;2024-02-16T05:47:31;6.10;99.90
30678;DHT22;73746;47.466;8.992;2024-02-16T05:50:03;6.20;99.90
30678;DHT22;73746;47.466;8.992;2024-02-16T05:52:37;6.20;99.90
30678;DHT22;73746;47.466;8.992;2024-02-16T05:55:11;6.10;99.90
30678;DHT22;73746;47.466;8.992;2024-02-16T05:57:43;6.10;99.90
30678;DHT22;73746;47.466;8.992;2024-02-16T06:13:24;6.30;99.90
30678;DHT22;73746;47.466;8.992;2024-02-16T06:15:56;6.30;99.90
30678;DHT22;73746;47.466;8.992;2024-02-16T06:18:28;6.30;99.90
30678;DHT22;73746;47.466;8.992;2024-02-16T06:21:00;6.30;99.90
30678;DHT22;73746;47.466;8.992;2024-02-16T06:23:32;6.20;99.90
30678;DHT22;73746;47.466;8.992;2024-02-16T06:26:06;6.20;99.90
30678;DHT22;73746;47.466;8.992;2024-02-16T06:28:38;6.30;99.90
30678;DHT22;73746;47.466;8.992;2024-02-16T06:31:10;6.40;99.90
30678;DHT22;73746;47.466;8.992;2024-02-16T06:33:42;6.40;99.90
30678;DHT22;73746;47.466;8.992;2024-02-16T06:36:14;6.40;99.90
30678;DHT22;73746;47.466;8.992;2024-02-16T06:38:46;6.40;99.90
30678;DHT22;73746;47.466;8.992;2024-02-16T06:41:18;6.50;99.90
30678;DHT22;73746;47.466;8.992;2024-02-16T06:43:50;6.50;99.90
30678;DHT22;73746;47.466;8.992;2024-02-16T06:46:22;6.60;99.90
30678;DHT22;73746;47.466;8.992;2024-02-16T06:48:55;6.60;99.90
30678;DHT22;73746;47.466;8.992;2024-02-16T06:51:27;6.60;99.90
30678;DHT22;73746;47.466;8.992;2024-02-16T06:53:59;6.60;99.90
30678;DHT22;73746;47.466;8.992;2024-02-16T06:56:35;6.70;99.90
30678;DHT22;73746;47.466;8.992;2024-02-16T06:59:07;6.70;99.90
30678;DHT22;73746;47.466;8.992;2024-02-16T07:01:39;6.80;99.90
30678;DHT22;73746;47.466;8.992;2024-02-16T07:04:11;6.90;99.90
30678;DHT22;73746;47.466;8.992;2024-02-16T07:20:44;7.70;99.90
30678;DHT22;73746;47.466;8.992;2024-02-16T07:23:17;8.00;99.90
30678;DHT22;73746;47.466;8.992;2024-02-16T07:25:49;8.30;99.90
30678;DHT22;73746;47.466;8.992;2024-02-16T07:28:21;8.50;99.90
30678;DHT22;73746;47.466;8.992;2024-02-16T07:30:54;8.70;99.90
30678;DHT22;73746;47.466;8.992;2024-02-16T07:33:26;8.90;99.90
30678;DHT22;73746;47.466;8.992;2024-02-16T07:36:00;9.10;99.90
30678;DHT22;73746;47.466;8.992;2024-02-16T07:38:31;9.40;99.90
30678;DHT22;73746;47.466;8.992;2024-02-16T07:41:03;9.70;99.90
30678;DHT22;73746;47.466;8.992;2024-02-16T07:43:37;10.00;99.90
30678;DHT22;73746;47.466;8.992;2024-02-16T07:46:10;10.20;99.90
30678;DHT22;73746;47.466;8.992;2024-02-16T07:48:42;10.40;99.90
30678;DHT22;73746;47.466;8.992;2024-02-16T07:51:14;10.60;99.90
30678;DHT22;73746;47.466;8.992;2024-02-16T07:53:45;10.80;99.90
30678;DHT22;73746;47.466;8.992;2024-02-16T07:56:17;11.10;99.90
30678;DHT22;73746;47.466;8.992;2024-02-16T07:58:51;11.20;99.90
30678;DHT22;73746;47.466;8.992;2024-02-16T08:01:23;11.40;99.90
30678;DHT22;73746;47.466;8.992;2024-02-16T08:03:55;11.50;99.90
30678;DHT22;73746;47.466;8.992;2024-02-16T08:06:27;11.50;99.90
30678;DHT22;73746;47.466;8.992;2024-02-16T08:08:59;11.40;99.90
30678;DHT22;73746;47.466;8.992;2024-02-16T08:11:31;11.30;99.90
30678;DHT22;73746;47.466;8.992;2024-02-16T08:14:03;11.30;99.90
30678;DHT22;73746;47.466;8.992;2024-02-16T08:16:35;11.50;99.90
30678;DHT22;73746;47.466;8.992;2024-02-16T08:19:07;11.60;99.90
30678;DHT22;73746;47.466;8.992;2024-02-16T08:21:39;11.70;99.90
30678;DHT22;73746;47.466;8.992;2024-02-16T08:24:11;11.70;99.90
30678;DHT22;73746;47.466;8.992;2024-02-16T08:26:43;11.80;99.90
30678;DHT22;73746;47.466;8.992;2024-02-16T08:29:14;11.70;99.90
30678;DHT22;73746;47.466;8.992;2024-02-16T08:31:48;11.70;99.90
30678;DHT22;73746;47.466;8.992;2024-02-16T08:34:20;11.70;99.90
30678;DHT22;73746;47.466;8.992;2024-02-16T08:36:52;11.70;99.90
30678;DHT22;73746;47.466;8.992;2024-02-16T08:39:25;11.80;99.90
30678;DHT22;73746;47.466;8.992;2024-02-16T08:41:57;11.80;99.90
30678;DHT22;73746;47.466;8.992;2024-02-16T08:44:29;11.80;99.90
30678;DHT22;73746;47.466;8.992;2024-02-16T08:49:45;11.80;99.90
30678;DHT22;73746;47.466;8.992;2024-02-16T08:52:17;11.90;99.90
30678;DHT22;73746;47.466;8.992;2024-02-16T08:54:49;11.90;99.90
30678;DHT22;73746;47.466;8.992;2024-02-16T08:57:21;11.90;99.90
30678;DHT22;73746;47.466;8.992;2024-02-16T08:59:53;11.90;99.90
30678;DHT22;73746;47.466;8.992;2024-02-16T09:02:26;11.90;99.90
30678;DHT22;73746;47.466;8.992;2024-02-16T09:04:58;11.90;99.90
30678;DHT22;73746;47.466;8.992;2024-02-16T09:07:30;12.00;99.90
30678;DHT22;73746;47.466;8.992;2024-02-16T09:10:02;12.00;99.90
30678;DHT22;73746;47.466;8.992;2024-02-16T09:12:34;12.10;99.90
30678;DHT22;73746;47.466;8.992;2024-02-16T09:15:10;12.20;99.90
30678;DHT22;73746;47.466;8.992;2024-02-16T09:17:43;12.20;99.90
30678;DHT22;73746;47.466;8.992;2024-02-16T09:20:15;12.30;99.90
30678;DHT22;73746;47.466;8.992;2024-02-16T09:22:49;12.40;99.90
30678;DHT22;73746;47.466;8.992;2024-02-16T09:25:21;12.50;99.90
30678;DHT22;73746;47.466;8.992;2024-02-16T09:27:56;12.60;99.90
30678;DHT22;73746;47.466;8.992;2024-02-16T09:30:28;12.60;99.90
30678;DHT22;73746;47.466;8.992;2024-02-16T09:32:59;12.70;99.90
30678;DHT22;73746;47.466;8.992;2024-02-16T09:35:31;12.80;99.90
30678;DHT22;73746;47.466;8.992;2024-02-16T09:38:03;13.00;99.90
30678;DHT22;73746;47.466;8.992;2024-02-16T09:40:35;13.10;99.90
30678;DHT22;73746;47.466;8.992;2024-02-16T09:43:07;13.30;99.90
30678;DHT22;73746;47.466;8.992;2024-02-16T09:45:39;13.50;99.90
30678;DHT22;73746;47.466;8.992;2024-02-16T09:50:47;13.60;99.90
30678;DHT22;73746;47.466;8.992;2024-02-16T09:53:20;14.10;99.90
30678;DHT22;73746;47.466;8.992;2024-02-16T09:55:52;14.20;99.90
30678;DHT22;73746;47.466;8.992;2024-02-16T09:58:24;14.50;99.90
30678;DHT22;73746;47.466;8.992;2024-02-16T10:01:17;14.60;99.90
30678;DHT22;73746;47.466;8.992;2024-02-16T10:03:51;14.70;99.90
30678;DHT22;73746;47.466;8.992;2024-02-16T10:06:49;14.90;99.90
30678;DHT22;73746;47.466;8.992;2024-02-16T10:09:25;15.30;99.90
30678;DHT22;73746;47.466;8.992;2024-02-16T10:11:57;15.70;99.90
30678;DHT22;73746;47.466;8.992;2024-02-16T10:14:29;15.90;99.90
30678;DHT22;73746;47.466;8.992;2024-02-16T10:17:03;16.10;99.90
30678;DHT22;73746;47.466;8.992;2024-02-16T10:19:36;16.20;99.90
30678;DHT22;73746;47.466;8.992;2024-02-16T10:22:12;16.30;99.90
30678;DHT22;73746;47.466;8.992;2024-02-16T10:24:44;16.40;99.90
30678;DHT22;73746;47.466;8.992;2024-02-16T10:27:17;16.60;99.90
30678;DHT22;73746;47.466;8.992;2024-02-16T10:29:51;16.80;99.90
30678;DHT22;73746;47.466;8.992;2024-02-16T10:32:25;16.90;99.90
30678;DHT22;73746;47.466;8.992;2024-02-16T10:34:58;16.90;99.90
30678;DHT22;73746;47.466;8.992;2024-02-16T10:37:30;16.90;99.90
30678;DHT22;73746;47.466;8.992;2024-02-16T10:40:02;16.90;99.90
30678;DHT22;73746;47.466;8.992;2024-02-16T10:42:36;17.00;99.90
30678;DHT22;73746;47.466;8.992;2024-02-16T10:45:11;17.10;99.90
30678;DHT22;73746;47.466;8.992;2024-02-16T10:47:43;17.10;99.90
30678;DHT22;73746;47.466;8.992;2024-02-16T10:50:15;17.30;99.90
30678;DHT22;73746;47.466;8.992;2024-02-16T10:52:48;17.40;99.90
30678;DHT22;73746;47.466;8.992;2024-02-16T10:55:21;17.50;99.90
30678;DHT22;73746;47.466;8.992;2024-02-16T10:57:55;17.40;99.90
30678;DHT22;73746;47.466;8.992;2024-02-16T11:00:28;17.40;99.90
30678;DHT22;73746;47.466;8.992;2024-02-16T11:03:02;17.40;99.90
30678;DHT22;73746;47.466;8.992;2024-02-16T11:05:35;17.50;99.90
30678;DHT22;73746;47.466;8.992;2024-02-16T11:08:12;17.60;99.90
30678;DHT22;73746;47.466;8.992;2024-02-16T11:10:55;17.60;99.90
30678;DHT22;73746;47.466;8.992;2024-02-16T11:13:28;17.70;99.90
30678;DHT22;73746;47.466;8.992;2024-02-16T11:16:00;17.70;99.90
30678;DHT22;73746;47.466;8.992;2024-02-16T11:18:37;17.60;99.90
30678;DHT22;73746;47.466;8.992;2024-02-16T11:21:12;17.60;99.90
30678;DHT22;73746;47.466;8.992;2024-02-16T11:23:45;17.50;99.90
30678;DHT22;73746;47.466;8.992;2024-02-16T11:26:18;17.40;99.90
30678;DHT22;73746;47.466;8.992;2024-02-16T11:28:50;17.30;99.90
30678;DHT22;73746;47.466;8.992;2024-02-16T11:31:22;17.30;99.90
30678;DHT22;73746;47.466;8.992;2024-02-16T11:33:53;17.40;99.90
30678;DHT22;73746;47.466;8.992;2024-02-16T11:36:25;17.40;99.90
30678;DHT22;73746;47.466;8.992;2024-02-16T11:38:58;17.40;99.90
30678;DHT22;73746;47.466;8.992;2024-02-16T11:41:30;17.40;99.90
30678;DHT22;73746;47.466;8.992;2024-02-16T11:44:02;17.30;99.90
30678;DHT22;73746;47.466;8.992;2024-02-16T11:46:34;17.40;99.90
30678;DHT22;73746;47.466;8.992;2024-02-16T11:49:07;17.30;99.90
30678;DHT22;73746;47.466;8.992;2024-02-16T11:51:39;17.30;99.90
30678;DHT22;73746;47.466;8.992;2024-02-16T11:54:11;17.20;99.90
30678;DHT22;73746;47.466;8.992;2024-02-16T11:56:44;17.10;99.90
30678;DHT22;73746;47.466;8.992;2024-02-16T11:59:16;17.00;99.90
30678;DHT22;73746;47.466;8.992;2024-02-16T12:01:55;17.00;99.90
30678;DHT22;73746;47.466;8.992;2024-02-16T12:04:28;16.80;99.90
30678;DHT22;73746;47.466;8.992;2024-02-16T12:07:02;16.70;99.90
30678;DHT22;73746;47.466;8.992;2024-02-16T12:09:35;16.60;99.90
30678;DHT22;73746;47.466;8.992;2024-02-16T12:12:08;16.50;99.90
30678;DHT22;73746;47.466;8.992;2024-02-16T12:14:58;16.40;99.90
30678;DHT22;73746;47.466;8.992;2024-02-16T12:17:30;16.40;99.90
30678;DHT22;73746;47.466;8.992;2024-02-16T12:20:03;16.30;99.90
30678;DHT22;73746;47.466;8.992;2024-02-16T12:22:35;16.30;99.90
30678;DHT22;73746;47.466;8.992;2024-02-16T12:25:08;16.30;99.90
30678;DHT22;73746;47.466;8.992;2024-02-16T12:27:40;16.40;99.90
30678;DHT22;73746;47.466;8.992;2024-02-16T12:30:13;16.40;99.90
30678;DHT22;73746;47.466;8.992;2024-02-16T12:32:46;16.50;99.90
30678;DHT22;73746;47.466;8.992;2024-02-16T12:35:18;16.60;99.90
30678;DHT22;73746;47.466;8.992;2024-02-16T12:37:50;16.70;99.90
30678;DHT22;73746;47.466;8.992;2024-02-16T12:40:22;16.80;99.90
30678;DHT22;73746;47.466;8.992;2024-02-16T12:42:54;16.90;99.90
30678;DHT22;73746;47.466;8.992;2024-02-16T12:45:26;16.90;99.90
30678;DHT22;73746;47.466;8.992;2024-02-16T12:47:58;16.80;99.90
30678;DHT22;73746;47.466;8.992;2024-02-16T12:50:31;16.90;99.90
30678;DHT22;73746;47.466;8.992;2024-02-16T12:53:04;16.90;99.90
30678;DHT22;73746;47.466;8.992;2024-02-16T12:55:36;16.90;99.90
30678;DHT22;73746;47.466;8.992;2024-02-16T12:58:16;16.90;99.90
30678;DHT22;73746;47.466;8.992;2024-02-16T13:00:47;17.00;99.90
30678;DHT22;73746;47.466;8.992;2024-02-16T13:03:20;17.00;99.90
30678;DHT22;73746;47.466;8.992;2024-02-16T13:05:51;17.00;99.90
30678;DHT22;73746;47.466;8.992;2024-02-16T13:08:35;17.00;99.90
30678;DHT22;73746;47.466;8.992;2024-02-16T13:11:07;17.10;99.90
30678;DHT22;73746;47.466;8.992;2024-02-16T13:13:39;17.20;99.90
30678;DHT22;73746;47.466;8.992;2024-02-16T13:16:11;17.30;99.90
30678;DHT22;73746;47.466;8.992;2024-02-16T13:18:43;17.40;99.90
30678;DHT22;73746;47.466;8.992;2024-02-16T13:21:15;17.50;99.90
30678;DHT22;73746;47.466;8.992;2024-02-16T13:23:47;17.70;99.90
30678;DHT22;73746;47.466;8.992;2024-02-16T13:26:19;18.20;99.90
30678;DHT22;73746;47.466;8.992;2024-02-16T13:28:50;18.60;99.90
30678;DHT22;73746;47.466;8.992;2024-02-16T13:31:23;18.90;99.90
30678;DHT22;73746;47.466;8.992;2024-02-16T13:33:55;19.10;99.90
30678;DHT22;73746;47.466;8.992;2024-02-16T13:36:26;19.10;99.90
30678;DHT22;73746;47.466;8.992;2024-02-16T13:38:58;19.00;99.90
30678;DHT22;73746;47.466;8.992;2024-02-16T13:41:31;18.60;99.90
30678;DHT22;73746;47.466;8.992;2024-02-16T13:44:03;18.60;99.90
30678;DHT22;73746;47.466;8.992;2024-02-16T13:46:35;18.40;99.90
30678;DHT22;73746;47.466;8.992;2024-02-16T13:49:07;18.30;99.90
30678;DHT22;73746;47.466;8.992;2024-02-16T13:51:38;17.90;99.90
30678;DHT22;73746;47.466;8.992;2024-02-16T13:54:10;17.70;99.90
30678;DHT22;73746;47.466;8.992;2024-02-16T13:56:42;17.50;99.90
30678;DHT22;73746;47.466;8.992;2024-02-16T13:59:14;17.40;99.90
30678;DHT22;73746;47.466;8.992;2024-02-16T14:04:30;17.30;99.90
30678;DHT22;73746;47.466;8.992;2024-02-16T14:07:02;17.30;99.90
30678;DHT22;73746;47.466;8.992;2024-02-16T14:09:34;17.70;99.90
30678;DHT22;73746;47.466;8.992;2024-02-16T14:12:07;18.70;99.90
30678;DHT22;73746;47.466;8.992;2024-02-16T14:14:38;19.50;99.90
30678;DHT22;73746;47.466;8.992;2024-02-16T14:17:10;19.80;99.90
30678;DHT22;73746;47.466;8.992;2024-02-16T14:19:42;20.20;99.90
30678;DHT22;73746;47.466;8.992;2024-02-16T14:22:14;20.20;99.90
30678;DHT22;73746;47.466;8.992;2024-02-16T14:24:46;20.20;99.90
30678;DHT22;73746;47.466;8.992;2024-02-16T14:27:18;19.70;99.90
30678;DHT22;73746;47.466;8.992;2024-02-16T14:29:51;19.00;99.90
30678;DHT22;73746;47.466;8.992;2024-02-16T14:32:23;18.50;99.90
30678;DHT22;73746;47.466;8.992;2024-02-16T14:34:54;18.10;99.90
30678;DHT22;73746;47.466;8.992;2024-02-16T14:37:26;17.80;99.90
30678;DHT22;73746;47.466;8.992;2024-02-16T14:39:59;17.60;99.90
30678;DHT22;73746;47.466;8.992;2024-02-16T14:42:31;17.40;99.90
30678;DHT22;73746;47.466;8.992;2024-02-16T14:45:05;17.20;99.90
30678;DHT22;73746;47.466;8.992;2024-02-16T14:47:38;17.10;99.90
30678;DHT22;73746;47.466;8.992;2024-02-16T14:50:10;17.00;99.90
30678;DHT22;73746;47.466;8.992;2024-02-16T14:52:44;16.90;99.90
30678;DHT22;73746;47.466;8.992;2024-02-16T14:55:16;16.90;99.90
30678;DHT22;73746;47.466;8.992;2024-02-16T14:57:48;16.90;99.90
30678;DHT22;73746;47.466;8.992;2024-02-16T15:00:20;16.80;99.90
30678;DHT22;73746;47.466;8.992;2024-02-16T15:02:53;16.70;99.90
30678;DHT22;73746;47.466;8.992;2024-02-16T15:05:25;16.70;99.90
30678;DHT22;73746;47.466;8.992;2024-02-16T15:07:57;16.60;99.90
30678;DHT22;73746;47.466;8.992;2024-02-16T15:10:29;16.50;99.90
30678;DHT22;73746;47.466;8.992;2024-02-16T15:13:01;16.30;99.90
30678;DHT22;73746;47.466;8.992;2024-02-16T15:15:32;16.30;99.90
30678;DHT22;73746;47.466;8.992;2024-02-16T15:18:06;16.10;99.90
30678;DHT22;73746;47.466;8.992;2024-02-16T15:20:38;16.10;99.90
30678;DHT22;73746;47.466;8.992;2024-02-16T15:23:10;16.20;99.90
30678;DHT22;73746;47.466;8.992;2024-02-16T15:25:42;16.10;99.90
30678;DHT22;73746;47.466;8.992;2024-02-16T15:28:14;16.10;99.90
30678;DHT22;73746;47.466;8.992;2024-02-16T15:30:49;16.10;99.90
30678;DHT22;73746;47.466;8.992;2024-02-16T15:33:21;16.10;99.90
30678;DHT22;73746;47.466;8.992;2024-02-16T15:35:53;16.10;99.90
30678;DHT22;73746;47.466;8.992;2024-02-16T15:38:26;16.10;99.90
30678;DHT22;73746;47.466;8.992;2024-02-16T15:40:58;16.00;99.90
30678;DHT22;73746;47.466;8.992;2024-02-16T15:43:30;16.00;99.90
30678;DHT22;73746;47.466;8.992;2024-02-16T15:46:03;15.80;99.90
30678;DHT22;73746;47.466;8.992;2024-02-16T15:48:34;15.60;99.90
30678;DHT22;73746;47.466;8.992;2024-02-16T15:51:06;15.50;99.90
30678;DHT22;73746;47.466;8.992;2024-02-16T15:53:38;15.40;99.90
30678;DHT22;73746;47.466;8.992;2024-02-16T15:56:10;15.30;99.90
30678;DHT22;73746;47.466;8.992;2024-02-16T15:58:42;15.20;99.90
30678;DHT22;73746;47.466;8.992;2024-02-16T16:01:14;15.20;99.90
30678;DHT22;73746;47.466;8.992;2024-02-16T16:03:46;15.00;99.90
30678;DHT22;73746;47.466;8.992;2024-02-16T16:06:18;14.90;99.90
30678;DHT22;73746;47.466;8.992;2024-02-16T16:09:08;14.90;99.90
30678;DHT22;73746;47.466;8.992;2024-02-16T16:11:43;15.00;99.90
30678;DHT22;73746;47.466;8.992;2024-02-16T16:14:15;14.90;99.90
30678;DHT22;73746;47.466;8.992;2024-02-16T16:16:47;14.80;99.90
30678;DHT22;73746;47.466;8.992;2024-02-16T16:19:22;14.80;99.90
30678;DHT22;73746;47.466;8.992;2024-02-16T16:21:53;14.90;99.90
30678;DHT22;73746;47.466;8.992;2024-02-16T16:24:26;14.80;99.90
30678;DHT22;73746;47.466;8.992;2024-02-16T16:26:58;14.80;99.90
30678;DHT22;73746;47.466;8.992;2024-02-16T16:29:30;14.70;99.90
30678;DHT22;73746;47.466;8.992;2024-02-16T16:32:02;14.60;99.90
30678;DHT22;73746;47.466;8.992;2024-02-16T16:34:36;14.60;99.90
30678;DHT22;73746;47.466;8.992;2024-02-16T16:37:08;14.50;99.90
30678;DHT22;73746;47.466;8.992;2024-02-16T16:39:40;14.50;99.90
30678;DHT22;73746;47.466;8.992;2024-02-16T16:42:13;14.50;99.90
30678;DHT22;73746;47.466;8.992;2024-02-16T16:44:44;14.40;99.90
30678;DHT22;73746;47.466;8.992;2024-02-16T16:47:18;14.40;99.90
30678;DHT22;73746;47.466;8.992;2024-02-16T16:49:49;14.40;99.90
30678;DHT22;73746;47.466;8.992;2024-02-16T16:52:21;14.30;99.90